createdAt,value
2018-03-25T00:00:50.912Z,103.03
2018-03-25T00:03:18.457Z,109.80
2018-03-25T00:05:45.980Z,101.87
2018-03-25T00:08:13.527Z,109.17
2018-03-25T00:10:41.071Z,117.13
2018-03-25T00:13:08.588Z,113.37
2018-03-25T00:15:36.156Z,120.57
2018-03-25T00:18:03.693Z,118.10
2018-03-25T00:20:31.229Z,137.60
2018-03-25T00:22:58.887Z,142.73
2018-03-25T00:25:26.411Z,144.47
2018-03-25T00:27:53.934Z,147.87
2018-03-25T00:30:21.492Z,148.30
2018-03-25T00:32:49.011Z,155.70
2018-03-25T00:35:17.306Z,152.53
2018-03-25T00:37:45.643Z,158.27
2018-03-25T00:40:13.171Z,159.87
2018-03-25T00:42:40.701Z,167.00
2018-03-25T00:45:09.024Z,149.27
2018-03-25T00:47:36.550Z,150.37
2018-03-25T00:50:04.840Z,158.93
2018-03-25T00:52:32.398Z,156.00
2018-03-25T00:55:00.689Z,155.13
2018-03-25T00:57:28.236Z,159.30
2018-03-25T00:59:56.667Z,138.73
2018-03-25T01:02:24.190Z,140.47
2018-03-25T01:04:52.462Z,138.53
2018-03-25T01:07:20.784Z,139.17
2018-03-25T01:09:48.318Z,147.13
2018-03-25T01:12:15.857Z,147.07
2018-03-25T01:14:43.449Z,124.23
2018-03-25T01:17:10.998Z,136.83
2018-03-25T01:19:39.350Z,119.97
2018-03-25T01:22:07.002Z,123.77
2018-03-25T01:24:34.570Z,124.83
2018-03-25T01:27:02.088Z,121.73
2018-03-25T01:29:29.738Z,117.80
2018-03-25T01:31:58.013Z,119.93
2018-03-25T01:34:25.540Z,125.30
2018-03-25T01:36:53.087Z,123.07
2018-03-25T01:39:20.601Z,117.73
2018-03-25T01:41:48.124Z,113.30
2018-03-25T01:44:15.667Z,120.80
2018-03-25T01:46:43.199Z,122.93
2018-03-25T01:49:11.480Z,111.97
2018-03-25T01:51:39.784Z,125.90
2018-03-25T01:54:07.305Z,115.30
2018-03-25T01:56:34.847Z,116.43
2018-03-25T01:59:02.485Z,107.87
2018-03-25T02:01:29.996Z,113.27
2018-03-25T02:03:57.511Z,104.60
2018-03-25T02:06:25.063Z,113.40
2018-03-25T02:08:52.586Z,110.43
2018-03-25T02:11:20.101Z,107.23
2018-03-25T02:13:47.664Z,106.90
2018-03-25T02:16:15.169Z,104.00
2018-03-25T02:18:42.694Z,103.30
2018-03-25T02:21:10.250Z,98.97
2018-03-25T02:23:37.792Z,97.60
2018-03-25T02:26:06.078Z,101.07
2018-03-25T02:28:34.483Z,100.43
2018-03-25T02:31:02.004Z,97.70
2018-03-25T02:33:29.508Z,98.10
2018-03-25T02:35:57.063Z,100.37
2018-03-25T02:38:25.354Z,100.13
2018-03-25T02:40:52.883Z,103.47
2018-03-25T02:43:21.314Z,103.67
2018-03-25T02:45:48.835Z,108.90
2018-03-25T02:48:17.130Z,105.53
2018-03-25T02:50:44.707Z,113.70
2018-03-25T02:53:12.232Z,118.63
2018-03-25T02:55:40.524Z,107.50
2018-03-25T02:58:08.842Z,112.90
2018-03-25T03:00:36.374Z,115.60
2018-03-25T03:03:04.656Z,114.33
2018-03-25T03:05:33.057Z,103.30
2018-03-25T03:08:00.604Z,109.73
2018-03-25T03:10:28.137Z,104.23
2018-03-25T03:12:55.667Z,103.43
2018-03-25T03:15:23.186Z,103.07
2018-03-25T03:17:51.462Z,94.47
2018-03-25T03:20:19.854Z,93.47
2018-03-25T03:22:48.122Z,98.50
2018-03-25T03:25:16.424Z,95.23
2018-03-25T03:27:43.960Z,98.80
2018-03-25T03:30:11.471Z,94.70
2018-03-25T03:32:39.005Z,104.87
2018-03-25T03:35:07.326Z,100.97
2018-03-25T03:37:34.842Z,95.10
2018-03-25T03:40:03.136Z,95.73
2018-03-25T03:42:30.684Z,104.97
2018-03-25T03:44:58.954Z,94.70
2018-03-25T03:47:26.480Z,102.03
2018-03-25T03:49:54.038Z,103.00
2018-03-25T03:52:21.555Z,97.13
2018-03-25T03:54:49.862Z,103.97
2018-03-25T03:57:17.418Z,101.30
2018-03-25T03:59:44.944Z,102.20
2018-03-25T04:02:12.472Z,98.50
2018-03-25T04:04:40.006Z,99.10
2018-03-25T04:07:07.533Z,99.87
2018-03-25T04:09:35.056Z,93.53
2018-03-25T04:12:02.577Z,103.17
2018-03-25T04:14:30.859Z,98.13
2018-03-25T04:16:59.140Z,97.10
2018-03-25T04:19:27.456Z,94.13
2018-03-25T04:21:54.977Z,95.90
2018-03-25T04:24:22.504Z,88.77
2018-03-25T04:26:50.060Z,88.23
2018-03-25T04:29:17.597Z,93.83
2018-03-25T04:31:45.118Z,89.67
2018-03-25T04:34:12.765Z,85.17
2018-03-25T04:36:40.298Z,83.93
2018-03-25T04:39:07.814Z,78.77
2018-03-25T04:41:35.392Z,74.80
2018-03-25T04:44:03.677Z,74.83
2018-03-25T04:46:31.995Z,76.50
2018-03-25T04:48:59.518Z,71.87
2018-03-25T04:51:27.830Z,74.37
2018-03-25T04:53:55.412Z,68.90
2018-03-25T04:56:22.900Z,68.57
2018-03-25T04:58:50.414Z,72.37
2018-03-25T05:01:17.968Z,69.90
2018-03-25T05:03:45.479Z,72.87
2018-03-25T05:06:13.005Z,67.43
2018-03-25T05:08:40.540Z,80.77
2018-03-25T05:11:08.826Z,77.17
2018-03-25T05:13:37.148Z,74.20
2018-03-25T05:16:04.668Z,82.17
2018-03-25T05:18:32.948Z,85.57
2018-03-25T05:21:01.267Z,84.87
2018-03-25T05:23:28.781Z,95.47
2018-03-25T05:25:56.318Z,96.83
2018-03-25T05:28:23.862Z,112.00
2018-03-25T05:30:51.383Z,107.03
2018-03-25T05:33:19.670Z,110.57
2018-03-25T05:35:48.090Z,97.40
2018-03-25T05:38:15.619Z,93.70
2018-03-25T05:40:43.897Z,90.80
2018-03-25T05:43:12.196Z,99.47
2018-03-25T05:45:39.720Z,112.57
2018-03-25T05:48:07.264Z,124.83
2018-03-25T05:50:34.829Z,127.90
2018-03-25T05:53:02.360Z,89.70
2018-03-25T05:55:29.866Z,79.27
2018-03-25T05:57:57.420Z,73.17
2018-03-25T06:00:24.955Z,66.27
2018-03-25T06:02:52.483Z,73.73
2018-03-25T06:05:20.794Z,62.90
2018-03-25T06:07:48.334Z,60.70
2018-03-25T06:10:15.860Z,58.37
2018-03-25T06:12:43.423Z,57.10
2018-03-25T06:15:11.007Z,54.93
2018-03-25T06:17:38.558Z,51.63
2018-03-25T06:20:06.228Z,46.50
2018-03-25T06:22:33.766Z,52.43
2018-03-25T06:25:01.296Z,45.30
2018-03-25T06:27:28.871Z,44.93
2018-03-25T06:29:56.408Z,43.27
2018-03-25T06:32:24.722Z,40.57
2018-03-25T06:34:52.287Z,41.67
2018-03-25T06:37:19.815Z,36.10
2018-03-25T06:39:48.136Z,35.77
2018-03-25T06:42:15.682Z,31.03
2018-03-25T06:44:43.204Z,32.30
2018-03-25T06:47:10.728Z,28.03
2018-03-25T06:49:38.318Z,36.90
2018-03-25T06:52:05.857Z,29.33
2018-03-25T06:54:33.385Z,29.60
2018-03-25T06:57:00.947Z,29.33
2018-03-25T06:59:29.276Z,27.00
2018-03-25T07:01:56.817Z,30.37
2018-03-25T07:04:24.445Z,30.33
2018-03-25T07:06:52.751Z,27.43
2018-03-25T07:09:20.350Z,32.90
2018-03-25T07:11:47.933Z,25.50
2018-03-25T07:14:15.470Z,33.33
2018-03-25T07:16:43.003Z,30.60
2018-03-25T07:19:10.554Z,32.67
2018-03-25T07:21:38.885Z,27.77
2018-03-25T07:24:06.406Z,35.30
2018-03-25T07:26:34.070Z,31.90
2018-03-25T07:29:01.592Z,28.43
2018-03-25T07:31:29.149Z,30.63
2018-03-25T07:33:56.716Z,28.70
2018-03-25T07:36:24.261Z,28.57
2018-03-25T07:38:51.825Z,31.17
2018-03-25T07:41:19.423Z,31.57
2018-03-25T07:43:46.951Z,35.30
2018-03-25T07:46:14.508Z,31.03
2018-03-25T07:48:42.076Z,28.50
2018-03-25T07:51:09.607Z,30.97
2018-03-25T07:53:37.927Z,32.10
2018-03-25T07:56:06.299Z,33.07
2018-03-25T07:58:33.879Z,33.63
2018-03-25T08:01:01.420Z,34.80
2018-03-25T08:03:29.001Z,35.53
2018-03-25T08:05:56.553Z,36.50
2018-03-25T08:08:24.079Z,32.53
2018-03-25T08:10:52.497Z,33.30
2018-03-25T08:13:20.817Z,29.60
2018-03-25T08:15:48.371Z,27.63
2018-03-25T08:18:15.974Z,24.50
2018-03-25T08:20:45.206Z,24.37
2018-03-25T08:23:12.764Z,24.73
2018-03-25T08:25:40.334Z,24.70
2018-03-25T08:28:07.870Z,23.13
2018-03-25T08:30:36.208Z,23.03
2018-03-25T08:33:03.755Z,20.40
2018-03-25T08:35:31.318Z,17.63
2018-03-25T08:37:58.900Z,19.17
2018-03-25T08:40:26.464Z,18.70
2018-03-25T08:42:54.034Z,20.83
2018-03-25T08:45:21.621Z,20.40
2018-03-25T08:47:49.934Z,20.50
2018-03-25T08:50:17.481Z,19.93
2018-03-25T08:52:45.975Z,14.77
2018-03-25T08:55:14.465Z,17.50
2018-03-25T08:57:42.097Z,17.80
2018-03-25T09:00:09.931Z,16.50
2018-03-25T09:02:37.577Z,18.20
2018-03-25T09:05:05.434Z,16.63
2018-03-25T09:07:33.001Z,23.73
2018-03-25T09:10:00.544Z,15.90
2018-03-25T09:12:29.018Z,16.37
2018-03-25T09:14:56.634Z,16.73
2018-03-25T09:17:24.306Z,14.47
2018-03-25T09:19:52.205Z,13.50
2018-03-25T09:22:19.927Z,14.70
2018-03-25T09:24:47.475Z,15.07
2018-03-25T09:27:16.002Z,13.13
2018-03-25T09:29:43.771Z,14.50
2018-03-25T09:32:11.498Z,14.23
2018-03-25T09:34:39.832Z,13.60
2018-03-25T09:37:07.474Z,14.47
2018-03-25T09:39:35.216Z,15.47
2018-03-25T09:42:03.658Z,14.47
2018-03-25T09:44:31.332Z,18.10
2018-03-25T09:46:58.878Z,12.33
2018-03-25T09:49:26.409Z,13.63
2018-03-25T09:51:54.164Z,12.13
2018-03-25T09:54:21.745Z,13.40
2018-03-25T09:56:49.310Z,15.10
2018-03-25T09:59:16.865Z,12.00
2018-03-25T10:01:50.017Z,13.97
2018-03-25T10:04:17.596Z,13.60
2018-03-25T10:06:45.155Z,12.77
2018-03-25T10:09:12.721Z,15.53
2018-03-25T10:11:40.387Z,14.47
2018-03-25T10:14:07.914Z,14.10
2018-03-25T10:16:35.453Z,16.03
2018-03-25T10:19:03.121Z,14.30
2018-03-25T10:21:30.704Z,13.97
2018-03-25T10:23:58.269Z,13.43
2018-03-25T10:26:26.857Z,18.63
2018-03-25T10:28:54.415Z,19.53
2018-03-25T10:31:22.065Z,15.80
2018-03-25T10:33:49.649Z,16.97
2018-03-25T10:36:17.181Z,14.90
2018-03-25T10:38:44.786Z,32.87
2018-03-25T10:41:12.511Z,47.60
2018-03-25T10:43:40.041Z,21.70
2018-03-25T10:46:07.561Z,22.83
2018-03-25T10:48:35.277Z,22.83
2018-03-25T10:51:02.838Z,41.23
2018-03-25T10:53:30.359Z,33.67
2018-03-25T10:55:57.895Z,39.07
2018-03-25T10:58:25.506Z,47.30
2018-03-25T11:00:53.089Z,22.53
2018-03-25T11:03:20.631Z,15.77
2018-03-25T11:05:48.932Z,16.07
2018-03-25T11:08:16.481Z,14.73
2018-03-25T11:10:44.078Z,13.93
2018-03-25T11:13:12.358Z,25.40
2018-03-25T11:15:40.676Z,26.63
2018-03-25T11:18:08.430Z,19.93
2018-03-25T11:20:35.954Z,25.10
2018-03-25T11:23:03.517Z,23.03
2018-03-25T11:25:31.029Z,20.03
2018-03-25T11:27:58.540Z,18.43
2018-03-25T11:30:26.100Z,25.23
2018-03-25T11:32:53.616Z,19.13
2018-03-25T11:35:21.137Z,15.10
2018-03-25T11:37:48.664Z,14.43
2018-03-25T11:40:16.183Z,16.43
2018-03-25T11:42:44.494Z,16.87
2018-03-25T11:45:12.028Z,23.67
2018-03-25T11:47:40.309Z,22.13
2018-03-25T11:50:08.718Z,15.90
2018-03-25T11:52:36.240Z,20.83
2018-03-25T11:55:04.532Z,15.63
2018-03-25T11:57:32.928Z,18.67
2018-03-25T12:00:01.206Z,19.73
2018-03-25T12:02:29.504Z,20.87
2018-03-25T12:04:57.045Z,17.60
2018-03-25T12:07:25.334Z,21.83
2018-03-25T12:09:52.915Z,16.13
2018-03-25T12:12:20.473Z,15.07
2018-03-25T12:14:47.987Z,13.50
2018-03-25T12:17:15.523Z,18.90
2018-03-25T12:19:43.045Z,17.43
2018-03-25T12:22:11.323Z,13.17
2018-03-25T12:24:39.631Z,16.83
2018-03-25T12:27:07.169Z,19.40
2018-03-25T12:29:35.471Z,17.77
2018-03-25T12:32:03.044Z,16.37
2018-03-25T12:34:30.610Z,16.30
2018-03-25T12:36:58.148Z,15.53
2018-03-25T12:39:25.760Z,14.93
2018-03-25T12:41:53.268Z,14.43
2018-03-25T12:44:21.650Z,15.77
2018-03-25T12:46:50.113Z,15.17
2018-03-25T12:49:17.647Z,14.37
2018-03-25T12:51:45.189Z,15.67
2018-03-25T12:54:12.775Z,14.63
2018-03-25T12:56:40.448Z,14.47
2018-03-25T12:59:08.157Z,15.27
2018-03-25T13:01:36.644Z,15.63
2018-03-25T13:04:04.622Z,14.57
2018-03-25T13:06:32.281Z,16.10
2018-03-25T13:09:00.737Z,14.30
2018-03-25T13:11:28.258Z,16.93
2018-03-25T13:13:55.800Z,16.67
2018-03-25T13:16:24.323Z,15.37
2018-03-25T13:18:51.874Z,14.83
2018-03-25T13:21:19.417Z,13.90
2018-03-25T13:23:47.873Z,13.80
2018-03-25T13:26:15.428Z,12.80
2018-03-25T13:28:43.184Z,13.60
2018-03-25T13:31:10.742Z,12.23
2018-03-25T13:33:38.372Z,13.43
2018-03-25T13:36:05.890Z,13.23
2018-03-25T13:38:33.457Z,12.93
2018-03-25T13:41:01.031Z,14.23
2018-03-25T13:43:28.553Z,14.57
2018-03-25T13:45:56.154Z,16.37
2018-03-25T13:48:23.686Z,13.33
2018-03-25T13:50:51.369Z,12.97
2018-03-25T13:53:18.980Z,18.03
2018-03-25T13:55:46.541Z,12.57
2018-03-25T13:58:14.845Z,13.57
2018-03-25T14:00:42.419Z,11.50
2018-03-25T14:03:10.015Z,12.03
2018-03-25T14:05:37.879Z,12.97
2018-03-25T14:08:05.432Z,12.43
2018-03-25T14:10:32.945Z,13.43
2018-03-25T14:13:01.395Z,14.47
2018-03-25T14:15:29.014Z,15.37
2018-03-25T14:17:56.528Z,10.60
2018-03-25T14:20:24.045Z,12.80
2018-03-25T14:22:51.736Z,11.47
2018-03-25T14:25:19.263Z,12.70
2018-03-25T14:27:46.849Z,12.10
2018-03-25T14:30:14.885Z,12.40
2018-03-25T14:32:43.521Z,14.90
2018-03-25T14:35:11.093Z,12.80
2018-03-25T14:37:38.654Z,12.00
2018-03-25T14:40:06.178Z,12.37
2018-03-25T14:42:33.722Z,14.63
2018-03-25T14:45:02.118Z,11.17
2018-03-25T14:47:30.389Z,13.77
2018-03-25T14:49:58.699Z,13.63
2018-03-25T14:52:26.254Z,14.80
2018-03-25T14:54:53.778Z,13.50
2018-03-25T14:57:21.356Z,13.27
2018-03-25T14:59:49.635Z,10.83
2018-03-25T15:02:17.158Z,12.27
2018-03-25T15:04:45.516Z,10.90
2018-03-25T15:07:13.069Z,13.23
2018-03-25T15:09:40.627Z,14.93
2018-03-25T15:12:08.273Z,16.87
2018-03-25T15:14:36.561Z,13.60
2018-03-25T15:17:04.986Z,13.13
2018-03-25T15:19:32.549Z,12.23
2018-03-25T15:22:00.070Z,16.90
2018-03-25T15:24:28.424Z,18.13
2018-03-25T15:26:56.008Z,17.93
2018-03-25T15:29:23.537Z,13.93
2018-03-25T15:31:51.222Z,17.80
2018-03-25T15:34:18.744Z,15.50
2018-03-25T15:36:46.288Z,13.87
2018-03-25T15:39:13.839Z,16.50
2018-03-25T15:41:42.161Z,15.10
2018-03-25T15:44:09.695Z,16.53
2018-03-25T15:46:38.063Z,13.63
2018-03-25T15:49:05.557Z,15.17
2018-03-25T15:51:33.104Z,15.73
2018-03-25T15:54:00.661Z,17.43
2018-03-25T15:56:28.937Z,17.70
2018-03-25T15:58:57.212Z,19.73
2018-03-25T16:01:25.529Z,19.23
2018-03-25T16:03:53.075Z,19.10
2018-03-25T16:06:20.677Z,21.07
2018-03-25T16:08:48.248Z,22.30
2018-03-25T16:11:15.783Z,18.13
2018-03-25T16:13:43.287Z,24.93
2018-03-25T16:16:10.855Z,25.20
2018-03-25T16:18:38.366Z,26.37
2018-03-25T16:21:05.890Z,29.63
2018-03-25T16:23:33.442Z,29.83
2018-03-25T16:26:00.960Z,27.10
2018-03-25T16:28:28.482Z,25.80
2018-03-25T16:30:56.112Z,31.07
2018-03-25T16:33:23.639Z,23.87
2018-03-25T16:35:51.967Z,25.63
2018-03-25T16:38:19.505Z,22.57
2018-03-25T16:40:47.041Z,20.73
2018-03-25T16:43:15.340Z,20.33
2018-03-25T16:45:42.996Z,26.80
2018-03-25T16:48:10.543Z,23.47
2018-03-25T16:50:38.812Z,25.00
2018-03-25T16:53:06.398Z,32.47
2018-03-25T16:55:34.709Z,32.80
2018-03-25T16:58:02.281Z,31.07
2018-03-25T17:00:29.822Z,31.73
2018-03-25T17:02:57.339Z,31.77
2018-03-25T17:05:24.904Z,37.00
2018-03-25T17:07:52.443Z,30.67
2018-03-25T17:10:19.949Z,34.10
2018-03-25T17:12:48.230Z,31.23
2018-03-25T17:15:16.632Z,29.17
2018-03-25T17:17:44.218Z,29.33
2018-03-25T17:20:11.764Z,31.20
2018-03-25T17:22:39.312Z,28.97
2018-03-25T17:25:07.610Z,34.60
2018-03-25T17:27:35.166Z,29.73
2018-03-25T17:30:03.596Z,33.57
2018-03-25T17:32:31.174Z,30.53
2018-03-25T17:34:58.943Z,38.37
2018-03-25T17:37:26.702Z,39.07
2018-03-25T17:39:54.269Z,43.37
2018-03-25T17:42:21.958Z,51.33
2018-03-25T17:44:49.694Z,47.23
2018-03-25T17:47:17.277Z,50.53
2018-03-25T17:49:44.903Z,48.23
2018-03-25T17:52:12.695Z,44.73
2018-03-25T17:54:40.192Z,51.90
2018-03-25T17:57:08.551Z,43.10
2018-03-25T17:59:36.128Z,47.40
2018-03-25T18:02:03.653Z,36.70
2018-03-25T18:04:31.181Z,39.43
2018-03-25T18:06:59.519Z,35.30
2018-03-25T18:09:27.038Z,37.50
2018-03-25T18:11:54.581Z,36.77
2018-03-25T18:14:22.945Z,38.33
2018-03-25T18:16:50.492Z,41.70
2018-03-25T18:19:18.062Z,48.40
2018-03-25T18:21:46.378Z,45.90
2018-03-25T18:24:14.029Z,53.50
2018-03-25T18:26:41.493Z,51.73
2018-03-25T18:29:09.022Z,51.90
2018-03-25T18:31:36.564Z,59.13
2018-03-25T18:34:04.115Z,60.53
2018-03-25T18:36:31.674Z,65.13
2018-03-25T18:38:59.204Z,63.90
2018-03-25T18:41:26.820Z,62.47
2018-03-25T18:43:54.363Z,73.23
2018-03-25T18:46:21.886Z,73.00
2018-03-25T18:48:49.529Z,69.83
2018-03-25T18:51:17.577Z,77.70
2018-03-25T18:53:45.167Z,74.47
2018-03-25T18:56:12.835Z,73.57
2018-03-25T18:58:40.351Z,71.73
2018-03-25T19:01:08.628Z,70.20
2018-03-25T19:03:36.918Z,73.10
2018-03-25T19:06:04.446Z,71.60
2018-03-25T19:08:32.209Z,71.93
2018-03-25T19:10:59.773Z,74.93
2018-03-25T19:13:27.381Z,74.73
2018-03-25T19:15:54.948Z,77.40
2018-03-25T19:18:22.695Z,74.87
2018-03-25T19:20:51.031Z,76.73
2018-03-25T19:23:18.604Z,89.50
2018-03-25T19:25:46.144Z,83.40
2018-03-25T19:28:13.746Z,84.83
2018-03-25T19:30:41.348Z,97.80
2018-03-25T19:33:09.623Z,88.37
2018-03-25T19:35:38.047Z,89.97
2018-03-25T19:38:05.571Z,98.13
2018-03-25T19:40:33.883Z,94.63
2018-03-25T19:43:01.547Z,96.17
2018-03-25T19:45:29.124Z,98.27
2018-03-25T19:47:56.693Z,90.50
2018-03-25T19:50:24.346Z,88.17
2018-03-25T19:52:51.901Z,87.17
2018-03-25T19:55:19.411Z,85.40
2018-03-25T19:57:47.128Z,87.97
2018-03-25T20:00:14.760Z,88.30
2018-03-25T20:02:43.079Z,79.83
2018-03-25T20:05:10.936Z,86.53
2018-03-25T20:07:38.471Z,84.23
2018-03-25T20:10:05.997Z,82.70
2018-03-25T20:12:33.527Z,83.77
2018-03-25T20:15:01.062Z,74.87
2018-03-25T20:17:28.682Z,77.83
2018-03-25T20:19:56.222Z,72.63
2018-03-25T20:22:23.786Z,78.03
2018-03-25T20:24:51.337Z,78.17
2018-03-25T20:27:19.648Z,74.07
2018-03-25T20:29:47.252Z,78.30
2018-03-25T20:32:14.799Z,79.77
2018-03-25T20:34:42.304Z,74.10
2018-03-25T20:37:10.737Z,69.60
2018-03-25T20:39:38.282Z,75.47
2018-03-25T20:42:05.911Z,72.80
2018-03-25T20:44:34.225Z,73.23
2018-03-25T20:47:01.873Z,72.70
2018-03-25T20:49:30.602Z,69.53
2018-03-25T20:51:58.173Z,76.63
2018-03-25T20:54:25.720Z,77.47
2018-03-25T20:56:53.249Z,79.63
2018-03-25T20:59:21.785Z,76.13
2018-03-25T21:01:49.556Z,78.90
2018-03-25T21:04:17.302Z,81.87
2018-03-25T21:06:45.002Z,79.27
2018-03-25T21:09:12.853Z,82.13
2018-03-25T21:11:40.388Z,83.03
2018-03-25T21:14:07.912Z,84.00
2018-03-25T21:16:35.437Z,87.40
2018-03-25T21:19:03.144Z,89.83
2018-03-25T21:21:30.820Z,87.27
2018-03-25T21:23:58.354Z,96.20
2018-03-25T21:26:25.886Z,94.43
2018-03-25T21:28:53.569Z,89.03
2018-03-25T21:31:21.086Z,98.10
2018-03-25T21:33:49.505Z,85.60
2018-03-25T21:36:17.086Z,96.27
2018-03-25T21:38:44.588Z,103.67
2018-03-25T21:41:12.888Z,102.50
2018-03-25T21:43:41.203Z,96.63
2018-03-25T21:46:08.750Z,104.20
2018-03-25T21:48:36.294Z,107.87
2018-03-25T21:51:04.576Z,117.33
2018-03-25T21:53:32.907Z,108.47
2018-03-25T21:56:00.422Z,115.50
2018-03-25T21:58:28.777Z,123.33
2018-03-25T22:00:56.437Z,130.67
2018-03-25T22:03:23.951Z,139.03
2018-03-25T22:05:51.490Z,164.20
2018-03-25T22:08:19.815Z,143.73
2018-03-25T22:10:47.334Z,144.30
2018-03-25T22:13:15.636Z,142.93
2018-03-25T22:15:43.176Z,150.13
2018-03-25T22:18:11.466Z,151.47
2018-03-25T22:20:39.825Z,160.03
2018-03-25T22:23:07.341Z,158.03
2018-03-25T22:25:34.869Z,163.60
2018-03-25T22:28:03.147Z,176.43
2018-03-25T22:30:31.453Z,163.07
2018-03-25T22:32:59.002Z,184.00
2018-03-25T22:35:26.526Z,180.30
2018-03-25T22:37:54.045Z,177.67
2018-03-25T22:40:21.724Z,182.90
2018-03-25T22:42:49.389Z,172.37
2018-03-25T22:45:16.912Z,166.83
2018-03-25T22:47:45.321Z,184.67
2018-03-25T22:50:12.825Z,189.83
2018-03-25T22:52:40.349Z,191.37
2018-03-25T22:55:07.989Z,196.73
2018-03-25T22:57:36.260Z,195.83
2018-03-25T23:00:03.779Z,197.77
2018-03-25T23:02:31.337Z,192.33
2018-03-25T23:04:58.872Z,197.50
2018-03-25T23:07:26.393Z,193.43
2018-03-25T23:09:53.925Z,188.87
2018-03-25T23:12:21.459Z,187.77
2018-03-25T23:14:49.724Z,187.27
2018-03-25T23:17:18.029Z,200.03
2018-03-25T23:19:45.546Z,182.17
2018-03-25T23:22:13.975Z,194.30
2018-03-25T23:24:41.511Z,193.37
2018-03-25T23:27:09.014Z,189.10
2018-03-25T23:29:36.528Z,179.07
2018-03-25T23:32:04.078Z,197.77
2018-03-25T23:34:31.580Z,188.03
2018-03-25T23:36:59.867Z,187.77
2018-03-25T23:39:27.415Z,189.97
2018-03-25T23:41:55.687Z,201.67
2018-03-25T23:44:23.222Z,199.13
2018-03-25T23:46:50.765Z,193.20
2018-03-25T23:49:18.280Z,185.90
2018-03-25T23:51:46.590Z,181.87
2018-03-25T23:54:14.328Z,189.17
2018-03-25T23:56:42.604Z,182.00
2018-03-25T23:59:10.156Z,180.00
